createdAt,value
2018-07-27T00:18:50.783Z,24.70
2018-07-27T00:21:19.614Z,24.70
2018-07-27T00:23:48.578Z,24.70
2018-07-27T00:26:17.473Z,24.60
2018-07-27T00:28:46.329Z,24.70
2018-07-27T00:31:15.224Z,24.70
2018-07-27T00:33:44.103Z,24.70
2018-07-27T00:36:12.989Z,24.70
2018-07-27T00:38:41.912Z,24.70
2018-07-27T00:58:29.632Z,24.80
2018-07-27T01:00:58.668Z,24.80
2018-07-27T01:03:27.561Z,24.80
2018-07-27T01:05:56.791Z,24.80
2018-07-27T01:08:25.700Z,24.90
2018-07-27T01:10:54.905Z,25.00
2018-07-27T01:13:23.743Z,25.10
2018-07-27T01:15:52.640Z,25.10
2018-07-27T01:18:21.763Z,25.20
2018-07-27T01:38:09.459Z,25.50
2018-07-27T01:40:38.307Z,25.50
2018-07-27T01:43:07.482Z,25.50
2018-07-27T01:48:05.234Z,25.50
2018-07-27T01:50:34.126Z,25.60
2018-07-27T01:53:03.342Z,25.60
2018-07-27T01:55:32.183Z,25.60
2018-07-27T01:58:01.085Z,25.60
2018-07-27T02:17:48.530Z,25.70
2018-07-27T02:20:17.402Z,25.70
2018-07-27T02:22:46.252Z,25.70
2018-07-27T02:25:15.151Z,25.70
2018-07-27T02:27:44.067Z,25.70
2018-07-27T02:30:12.902Z,25.70
2018-07-27T02:32:41.868Z,25.70
2018-07-27T02:35:10.743Z,25.70
2018-07-27T02:37:39.615Z,25.70
2018-07-27T03:08:59.862Z,25.50
2018-07-27T03:11:28.706Z,25.60
2018-07-27T03:13:57.581Z,25.60
2018-07-27T03:16:26.467Z,25.60
2018-07-27T03:18:55.744Z,25.60
2018-07-27T03:21:24.628Z,25.70
2018-07-27T03:23:53.512Z,25.70
2018-07-27T03:26:22.372Z,25.70
2018-07-27T03:28:51.827Z,25.70
2018-07-27T03:31:20.694Z,25.70
2018-07-27T03:33:49.554Z,25.80
2018-07-27T03:36:18.414Z,25.80
2018-07-27T03:38:47.606Z,25.80
2018-07-27T03:41:16.588Z,25.90
2018-07-27T03:43:45.467Z,25.90
2018-07-27T03:46:14.535Z,25.90
2018-07-27T04:06:00.014Z,25.80
2018-07-27T04:08:28.904Z,25.80
2018-07-27T04:10:57.895Z,25.80
2018-07-27T04:13:27.290Z,25.70
2018-07-27T04:15:56.191Z,25.70
2018-07-27T04:18:25.027Z,25.70
2018-07-27T04:20:53.890Z,25.70
2018-07-27T04:23:22.954Z,25.70
2018-07-27T04:25:51.803Z,25.80
2018-07-27T04:34:07.217Z,25.90
2018-07-27T04:36:36.434Z,25.90
2018-07-27T04:39:08.069Z,25.90
2018-07-27T04:41:36.976Z,26.00
2018-07-27T04:44:05.818Z,26.00
2018-07-27T04:46:34.713Z,26.10
2018-07-27T04:49:03.568Z,26.10
2018-07-27T04:59:48.078Z,26.20
2018-07-27T05:02:16.951Z,26.30
2018-07-27T05:04:45.802Z,26.30
2018-07-27T05:07:14.825Z,26.30
2018-07-27T05:12:12.296Z,26.40
2018-07-27T05:14:41.166Z,26.40
2018-07-27T05:17:10.715Z,26.40
2018-07-27T05:19:39.556Z,26.40
2018-07-27T05:22:08.370Z,26.40
2018-07-27T05:24:37.267Z,26.40
2018-07-27T05:27:06.309Z,26.50
2018-07-27T05:29:35.146Z,26.50
2018-07-27T05:32:03.970Z,26.50
2018-07-27T05:34:33.131Z,26.50
2018-07-27T05:37:01.952Z,26.50
2018-07-27T05:39:31.340Z,26.60
2018-07-27T05:42:00.175Z,26.60
2018-07-27T05:44:28.995Z,26.80
2018-07-27T05:46:58.208Z,26.90
2018-07-27T05:49:27.212Z,27.00
2018-07-27T05:52:05.363Z,27.20
2018-07-27T05:54:34.574Z,27.30
2018-07-27T05:57:03.457Z,27.40
2018-07-27T05:59:32.363Z,27.50
2018-07-27T06:02:01.133Z,27.60
2018-07-27T06:04:30.223Z,27.70
2018-07-27T06:06:59.102Z,27.90
2018-07-27T06:09:28.257Z,28.00
2018-07-27T06:11:57.107Z,28.00
2018-07-27T06:14:26.317Z,28.00
2018-07-27T06:16:55.396Z,28.10
2018-07-27T06:24:23.874Z,28.40
2018-07-27T06:26:52.567Z,28.50
2018-07-27T06:29:21.688Z,28.60
2018-07-27T06:31:50.408Z,28.60
2018-07-27T06:34:18.978Z,28.70
2018-07-27T06:36:47.644Z,28.90
2018-07-27T06:39:16.327Z,28.90
2018-07-27T06:41:45.358Z,28.90
2018-07-27T06:44:14.173Z,28.90
2018-07-27T06:46:42.759Z,28.90
2018-07-27T06:49:11.492Z,29.00
2018-07-27T06:51:40.089Z,29.10
2018-07-27T06:54:08.705Z,29.20
2018-07-27T06:56:37.257Z,29.30
2018-07-27T06:59:05.850Z,29.50
2018-07-27T07:01:34.453Z,29.60
2018-07-27T07:04:03.094Z,29.70
2018-07-27T07:06:31.693Z,29.80
2018-07-27T07:09:00.267Z,30.00
2018-07-27T07:11:29.002Z,30.10
2018-07-27T07:13:57.547Z,30.00
2018-07-27T07:16:28.278Z,30.00
2018-07-27T07:18:57.016Z,30.00
2018-07-27T07:21:26.044Z,30.10
2018-07-27T07:23:54.949Z,30.30
2018-07-27T07:26:23.839Z,30.30
2018-07-27T07:28:52.383Z,30.40
2018-07-27T07:31:21.425Z,30.50
2018-07-27T07:33:50.519Z,30.50
2018-07-27T07:36:19.448Z,30.50
2018-07-27T07:38:48.017Z,30.50
2018-07-27T07:41:16.758Z,30.60
2018-07-27T07:43:45.673Z,30.50
2018-07-27T07:46:14.584Z,30.60
2018-07-27T07:48:43.172Z,30.60
2018-07-27T07:51:11.791Z,30.60
2018-07-27T07:53:40.350Z,30.70
2018-07-27T07:56:09.309Z,30.80
2018-07-27T07:58:37.892Z,30.90
2018-07-27T08:01:06.618Z,30.90
2018-07-27T08:03:35.197Z,30.80
2018-07-27T08:06:04.124Z,30.70
2018-07-27T08:08:32.762Z,30.80
2018-07-27T08:11:01.341Z,30.80
2018-07-27T08:13:29.881Z,30.80
2018-07-27T08:15:58.433Z,30.80
2018-07-27T08:18:27.164Z,30.90
2018-07-27T08:20:56.420Z,31.00
2018-07-27T08:23:25.010Z,31.20
2018-07-27T08:26:59.352Z,31.20
2018-07-27T08:29:32.319Z,31.30
2018-07-27T08:32:01.563Z,31.50
2018-07-27T08:34:30.120Z,31.50
2018-07-27T08:36:58.720Z,31.50
2018-07-27T08:39:29.764Z,31.50
2018-07-27T08:41:58.527Z,31.50
2018-07-27T08:44:28.462Z,31.50
2018-07-27T08:46:57.057Z,31.60
2018-07-27T08:49:25.661Z,31.50
2018-07-27T08:51:54.375Z,31.60
2018-07-27T08:54:23.010Z,31.60
2018-07-27T08:56:51.857Z,31.70
2018-07-27T08:59:20.530Z,31.70
2018-07-27T09:01:49.227Z,31.70
2018-07-27T09:04:17.850Z,31.80
2018-07-27T09:06:46.526Z,31.80
2018-07-27T09:09:16.401Z,31.80
2018-07-27T09:11:45.351Z,31.90
2018-07-27T09:14:14.189Z,32.00
2018-07-27T09:16:42.832Z,32.10
2018-07-27T09:19:11.426Z,32.10
2018-07-27T09:21:42.092Z,32.20
2018-07-27T09:24:10.817Z,32.10
2018-07-27T09:26:39.442Z,32.30
2018-07-27T09:29:08.072Z,32.30
2018-07-27T09:31:36.816Z,32.40
2018-07-27T09:34:05.497Z,32.60
2018-07-27T09:36:34.352Z,32.60
2018-07-27T09:39:03.146Z,32.70
2018-07-27T09:41:31.747Z,32.70
2018-07-27T09:44:00.706Z,32.80
2018-07-27T09:48:57.900Z,32.70
2018-07-27T09:51:27.654Z,32.80
2018-07-27T09:53:56.481Z,32.80
2018-07-27T09:56:25.312Z,32.80
2018-07-27T10:03:29.803Z,33.10
2018-07-27T10:05:58.466Z,33.10
2018-07-27T10:08:27.256Z,33.10
2018-07-27T10:12:25.161Z,33.20
2018-07-27T10:17:24.838Z,33.40
2018-07-27T10:25:40.281Z,33.60
2018-07-27T10:28:08.908Z,33.70
2018-07-27T10:30:37.583Z,33.70
2018-07-27T10:33:06.272Z,33.70
2018-07-27T10:35:34.945Z,33.80
2018-07-27T10:38:03.613Z,33.90
2018-07-27T10:40:32.255Z,33.80
2018-07-27T10:43:00.915Z,33.90
2018-07-27T10:45:29.590Z,33.90
2018-07-27T10:48:01.853Z,34.00
2018-07-27T10:50:30.489Z,34.00
2018-07-27T10:52:59.113Z,34.10
2018-07-27T10:55:27.888Z,34.10
2018-07-27T10:57:56.588Z,34.10
2018-07-27T11:00:25.545Z,34.10
2018-07-27T11:02:54.188Z,34.20
2018-07-27T11:05:22.818Z,34.30
2018-07-27T11:07:51.898Z,34.40
2018-07-27T11:30:38.512Z,34.70
2018-07-27T11:33:07.162Z,34.70
2018-07-27T11:35:35.783Z,34.90
2018-07-27T11:38:04.443Z,34.90
2018-07-27T11:40:33.094Z,35.00
2018-07-27T11:43:01.721Z,35.10
2018-07-27T11:45:30.406Z,35.10
2018-07-27T11:47:59.042Z,35.10
2018-07-27T11:50:27.639Z,35.20
2018-07-27T11:52:56.406Z,35.20
2018-07-27T11:55:25.080Z,35.20
2018-07-27T12:00:22.083Z,35.40
2018-07-27T12:02:50.841Z,35.40
2018-07-27T12:07:47.764Z,35.50
2018-07-27T12:10:16.367Z,35.60
2018-07-27T12:12:45.289Z,35.70
2018-07-27T12:15:14.194Z,35.70
2018-07-27T12:17:42.650Z,35.70
2018-07-27T12:20:11.305Z,35.80
2018-07-27T12:22:39.872Z,35.90
2018-07-27T12:25:08.488Z,36.00
2018-07-27T12:27:37.077Z,36.10
2018-07-27T12:30:06.062Z,36.10
2018-07-27T12:32:34.707Z,36.10
2018-07-27T12:35:03.931Z,36.10
2018-07-27T12:37:32.613Z,36.10
2018-07-27T12:40:01.348Z,36.20
2018-07-27T13:02:23.649Z,36.80
2018-07-27T13:04:52.209Z,36.90
2018-07-27T13:07:20.832Z,37.00
2018-07-27T13:09:49.864Z,37.00
2018-07-27T13:12:18.865Z,37.10
2018-07-27T13:14:47.499Z,37.20
2018-07-27T13:17:16.427Z,37.20
2018-07-27T13:19:45.008Z,37.20
2018-07-27T13:22:13.710Z,37.20
2018-07-27T13:36:15.657Z,37.20
2018-07-27T13:38:44.209Z,37.30
2018-07-27T13:41:12.867Z,37.30
2018-07-27T13:43:41.494Z,37.50
2018-07-27T13:46:10.202Z,37.50
2018-07-27T13:48:39.208Z,37.50
2018-07-27T13:51:07.842Z,37.60
2018-07-27T13:53:36.439Z,37.60
2018-07-27T13:56:05.052Z,37.50
2018-07-27T14:07:15.852Z,37.70
2018-07-27T14:09:44.795Z,37.70
2018-07-27T14:12:13.443Z,37.60
2018-07-27T14:14:42.302Z,37.70
2018-07-27T14:17:11.055Z,37.70
2018-07-27T14:19:39.657Z,37.90
2018-07-27T14:22:08.624Z,37.90
2018-07-27T14:27:05.616Z,37.80
2018-07-27T14:46:53.850Z,38.40
2018-07-27T14:49:22.499Z,38.60
2018-07-27T14:51:51.087Z,38.70
2018-07-27T14:54:19.739Z,38.90
2018-07-27T14:56:48.383Z,39.20
2018-07-27T14:59:17.042Z,39.40
2018-07-27T15:01:45.648Z,39.50
2018-07-27T15:06:42.787Z,39.80
2018-07-27T15:23:36.972Z,41.00
2018-07-27T15:26:05.778Z,41.20
2018-07-27T15:28:35.249Z,41.20
2018-07-27T15:31:04.126Z,41.30
2018-07-27T15:33:33.304Z,41.20
2018-07-27T15:36:01.982Z,41.40
2018-07-27T15:38:30.619Z,41.70
2018-07-27T15:40:59.219Z,41.80
2018-07-27T15:43:27.823Z,41.70
2018-07-27T15:45:56.458Z,41.80
2018-07-27T15:48:25.332Z,42.00
2018-07-27T15:50:54.033Z,42.20
2018-07-27T15:53:22.662Z,42.20
2018-07-27T15:55:51.340Z,42.40
2018-07-27T15:58:19.945Z,42.50
2018-07-27T16:00:48.617Z,42.60
2018-07-27T16:03:16.966Z,42.50
2018-07-27T16:05:45.667Z,42.70
2018-07-27T16:08:14.260Z,42.50
2018-07-27T16:10:43.072Z,42.50
2018-07-27T16:13:11.872Z,42.50
2018-07-27T16:15:40.722Z,42.50
2018-07-27T16:18:09.688Z,42.30
2018-07-27T16:20:38.297Z,42.00
2018-07-27T16:23:07.032Z,41.70
2018-07-27T16:28:04.525Z,40.50
2018-07-27T16:30:33.162Z,40.20
2018-07-27T16:33:01.767Z,39.70
2018-07-27T16:35:31.678Z,39.40
2018-07-27T16:38:00.538Z,39.10
2018-07-27T16:40:29.182Z,38.70
2018-07-27T16:42:57.786Z,38.40
2018-07-27T16:45:26.380Z,38.20
2018-07-27T16:47:54.986Z,38.00
2018-07-27T16:50:24.474Z,37.80
2018-07-27T16:52:53.382Z,37.50
2018-07-27T16:55:22.149Z,37.30
2018-07-27T16:57:50.761Z,37.10
2018-07-27T17:00:19.443Z,37.00
2018-07-27T17:02:48.133Z,36.90
2018-07-27T17:05:16.968Z,36.70
2018-07-27T17:07:45.614Z,36.70
2018-07-27T17:12:42.880Z,36.60
2018-07-27T17:15:12.091Z,36.60
2018-07-27T17:17:40.675Z,36.50
2018-07-27T17:20:09.518Z,36.40
2018-07-27T17:22:38.391Z,36.30
2018-07-27T17:25:07.089Z,36.20
2018-07-27T17:27:36.270Z,36.00
2018-07-27T17:30:06.303Z,35.90
2018-07-27T17:32:35.411Z,35.80
2018-07-27T17:35:04.419Z,35.70
2018-07-27T17:37:33.716Z,35.60
2018-07-27T17:40:02.298Z,35.50
2018-07-27T17:42:31.253Z,35.40
2018-07-27T17:44:59.862Z,35.40
2018-07-27T17:47:28.497Z,35.30
2018-07-27T17:49:57.112Z,35.30
2018-07-27T17:52:25.920Z,35.10
2018-07-27T17:54:54.588Z,35.10
2018-07-27T18:00:00.469Z,35.20
2018-07-27T18:02:29.418Z,35.10
2018-07-27T18:04:58.047Z,35.00
2018-07-27T18:07:26.856Z,35.00
2018-07-27T18:09:56.276Z,34.90
2018-07-27T18:14:54.047Z,34.80
2018-07-27T18:17:22.635Z,34.60
2018-07-27T18:19:51.221Z,34.50
2018-07-27T18:22:19.805Z,34.40
2018-07-27T18:24:48.709Z,34.20
2018-07-27T18:27:17.365Z,34.00
2018-07-27T18:29:46.281Z,33.90
2018-07-27T18:32:14.964Z,33.70
2018-07-27T18:34:43.573Z,33.50
2018-07-27T18:37:12.192Z,33.20
2018-07-27T18:39:40.855Z,33.10
2018-07-27T18:42:09.632Z,32.90
2018-07-27T18:44:38.343Z,32.70
2018-07-27T18:47:07.031Z,32.50
2018-07-27T18:49:35.658Z,32.30
2018-07-27T18:52:04.496Z,32.20
2018-07-27T18:54:33.173Z,32.10
2018-07-27T18:59:30.196Z,31.80
2018-07-27T19:04:27.671Z,31.50
2018-07-27T19:09:25.003Z,31.30
2018-07-27T19:11:53.620Z,31.30
2018-07-27T19:14:22.208Z,31.10
2018-07-27T19:16:51.172Z,31.00
2018-07-27T19:19:19.816Z,30.90
2018-07-27T19:21:48.461Z,30.80
2018-07-27T19:24:17.105Z,30.60
2018-07-27T19:26:46.080Z,30.60
2018-07-27T19:29:15.831Z,30.40
2018-07-27T19:31:44.602Z,30.30
2018-07-27T19:34:13.497Z,30.20
2018-07-27T19:36:42.629Z,30.10
2018-07-27T19:39:12.440Z,30.00
2018-07-27T19:41:42.264Z,29.80
2018-07-27T19:44:11.332Z,29.70
2018-07-27T19:46:40.236Z,29.50
2018-07-27T19:49:09.289Z,29.40
2018-07-27T19:51:38.350Z,29.30
2018-07-27T19:54:07.259Z,29.10
2018-07-27T19:56:36.212Z,29.00
2018-07-27T19:59:05.121Z,28.90
2018-07-27T20:01:33.769Z,28.80
2018-07-27T20:04:02.703Z,28.70
2018-07-27T20:06:31.587Z,28.70
2018-07-27T20:09:00.458Z,28.60
2018-07-27T20:11:29.688Z,28.50
2018-07-27T20:13:58.570Z,28.40
2018-07-27T20:16:27.486Z,28.30
2018-07-27T20:18:56.338Z,28.30
2018-07-27T20:21:25.232Z,28.40
2018-07-27T20:23:54.253Z,28.50
2018-07-27T20:26:23.127Z,28.50
2018-07-27T20:28:52.481Z,28.40
2018-07-27T20:31:21.449Z,28.40
2018-07-27T20:33:50.291Z,28.30
2018-07-27T20:36:19.140Z,28.30
2018-07-27T20:38:47.995Z,28.20
2018-07-27T20:41:16.894Z,28.20
2018-07-27T20:43:45.828Z,28.10
2018-07-27T20:46:14.734Z,28.10
2018-07-27T20:48:43.684Z,28.20
2018-07-27T20:51:12.554Z,28.10
2018-07-27T20:53:41.426Z,28.20
2018-07-27T20:56:10.657Z,28.30
2018-07-27T20:58:39.569Z,28.40
2018-07-27T21:01:08.621Z,28.50
2018-07-27T21:03:37.527Z,28.50
2018-07-27T21:06:06.760Z,28.60
2018-07-27T21:08:35.697Z,28.70
2018-07-27T21:11:04.961Z,28.70
2018-07-27T21:13:33.853Z,28.80
2018-07-27T21:16:02.753Z,28.90
2018-07-27T21:18:31.804Z,28.90
2018-07-27T21:21:00.678Z,28.90
2018-07-27T21:23:29.627Z,29.00
2018-07-27T21:25:58.535Z,29.00
2018-07-27T21:28:27.414Z,29.00
2018-07-27T21:30:56.355Z,29.00
2018-07-27T21:33:25.545Z,28.90
2018-07-27T21:35:54.490Z,28.90
2018-07-27T21:38:23.492Z,28.90
2018-07-27T21:40:52.381Z,28.80
2018-07-27T21:43:21.461Z,28.80
2018-07-27T21:45:50.788Z,28.80
2018-07-27T21:48:19.657Z,28.80
2018-07-27T21:50:48.569Z,28.70
2018-07-27T21:55:46.530Z,28.70
2018-07-27T21:58:15.373Z,28.60
2018-07-27T22:00:44.227Z,28.60
2018-07-27T22:03:13.110Z,28.60
2018-07-27T22:05:42.312Z,28.60
2018-07-27T22:08:11.128Z,28.50
2018-07-27T22:10:40.352Z,28.50
2018-07-27T22:15:38.404Z,28.20
2018-07-27T22:18:07.347Z,28.10
2018-07-27T22:23:05.310Z,27.40
2018-07-27T22:25:34.891Z,27.00
2018-07-27T22:28:04.299Z,26.80
2018-07-27T22:30:33.207Z,26.70
2018-07-27T22:33:02.099Z,26.90
2018-07-27T22:35:30.990Z,26.30
2018-07-27T22:38:00.033Z,25.80
2018-07-27T22:40:28.982Z,25.30
2018-07-27T22:42:58.016Z,24.70
2018-07-27T22:45:27.661Z,24.20
2018-07-27T22:47:56.576Z,23.90
2018-07-27T22:50:25.657Z,23.70
2018-07-27T22:52:55.301Z,23.60
2018-07-27T22:55:24.348Z,23.40
2018-07-27T22:57:53.770Z,23.30
2018-07-27T23:00:22.659Z,23.10
2018-07-27T23:02:51.581Z,23.00
2018-07-27T23:05:20.787Z,23.00
2018-07-27T23:07:49.686Z,22.90
2018-07-27T23:10:18.640Z,22.90
2018-07-27T23:12:47.546Z,22.80
2018-07-27T23:15:17.690Z,22.70
2018-07-27T23:17:46.661Z,22.70
2018-07-27T23:20:15.578Z,22.60
2018-07-27T23:22:44.567Z,22.50
2018-07-27T23:25:13.478Z,22.40
2018-07-27T23:27:42.368Z,22.40
2018-07-27T23:30:12.930Z,22.30
2018-07-27T23:32:42.169Z,22.30
2018-07-27T23:40:36.742Z,22.20
2018-07-27T23:43:05.958Z,22.10
2018-07-27T23:45:35.204Z,22.10
2018-07-27T23:50:32.952Z,22.00
2018-07-27T23:53:01.832Z,22.00
2018-07-27T23:55:31.046Z,22.00
2018-07-27T23:57:59.903Z,22.00
